メインページ
METAR-TAF:

METAR-TAF

空港 :

パゴパゴ, 合衆国領有小離島

パゴパゴ国際空港

緯度: 14-20S, 経度: 170-43W, 海抜: 3m

現時点の気象観測

当レポートは1時間44分前の08:51(UTC)に作成
の風 15kt、最大22ktの突風を伴う
気温 26°C
湿度 89%
気圧 1012 hPa
視程: 12.9km
高度1600ftの雲は散在している
高度3600ftの千切れ雲あり
弱いにわか雨

METAR: NSTU 230851Z 01015G22KT 8SM -SHRA SCT016 BKN036 26/24 A2988 RMK SLP119 60031 8/400 T02580241 52015

時間: 23:35 (10:35 UTC)

予報

当レポートは2時間47分前の07:48(UTC)に作成
予報は23日の 08時(UTC)から 24日の 06時(UTC)まで有効
北/北東の風 11kt
視程: 10km
高度1500ftの雲は散在している, 積乱雲.
高度3500ftの千切れ雲あり
高度5000ftの曇り
近辺で激しい雷雨
23日の 08時(UTC)から 23日の 10時(UTC)まで一時的に
視程: 4.8km
高度700ftの雲は散在している
高度1500ftの千切れ雲あり
にわか雨, 靄

TAF: NSTU 230748Z 2308/2406 02011KT P6SM VCTS SCT015CB BKN035 OVC050 TEMPO 2308/2310 3SM SHRA BR SCT007 BKN015

4,000以上の空港の気象観測と天気予報(METAR報とTAF報)

利用可能な観測所は地図上に黄色い丸と赤い丸で示す。

丸の上にカーソルを重ねると観測所名を参照できる。

次にクリックすると気象観測と天気予報を参照できる。

マップの切り替え:黒色「×」印の緑ボタンをクリックして拡大、「-」印の緑ボタンをクリックして縮小、緑色の三角印をクリックして隣りの地図に切り替え


METAR-TAF: